X  Zatvori METAR Podaci o vazduhoplovstvu        LYNI Nis Airport
Temperatura
7°C Temperatura
6°C Tačka Rose
93% Vlaga



Vetar
5 M/S
12 MPH
19 KM/H
10 KTS



320°
SZ
Trenutna situacija

Mostly Cloudy with Light Rain Pretežno oblačno , Slaba Kiša
Vazdušni pritisak 1011 (hPa) - 29.87 (inHg)
Vidljivost 6 (Milja) - 10 (km)
Aerodrom
Aerodromski kod. LYNI

Lokacija: Nis Airport
Udaljenost: 63 (km)

Metar:
METAR LYNI 211400Z 32010KT 9999 -RA SCT013 BKN037 07/06 Q1011 NOSIG

Vreme: 21-04-2024 16:00 CEST